createdAt,value
2022-12-25T00:03:34.935Z,3.88
2022-12-25T00:07:36.630Z,4.43
2022-12-25T00:11:38.181Z,4.22
2022-12-25T00:15:41.713Z,4.15
2022-12-25T00:19:43.503Z,3.72
2022-12-25T00:23:45.154Z,3.60
2022-12-25T00:27:46.860Z,4.20
2022-12-25T00:31:48.544Z,3.40
2022-12-25T00:36:00.593Z,3.85
2022-12-25T00:40:02.167Z,3.33
2022-12-25T00:44:03.735Z,3.58
2022-12-25T00:48:05.626Z,3.00
2022-12-25T00:52:07.722Z,3.30
2022-12-25T00:56:10.702Z,3.40
2022-12-25T01:04:14.429Z,2.90
2022-12-25T01:08:15.959Z,3.03
2022-12-25T01:12:17.511Z,3.42
2022-12-25T01:16:21.950Z,3.03
2022-12-25T01:20:23.519Z,3.45
2022-12-25T01:24:25.069Z,3.05
2022-12-25T01:28:26.643Z,3.20
2022-12-25T01:32:28.454Z,3.33
2022-12-25T01:36:30.025Z,3.22
2022-12-25T01:40:34.330Z,2.80
2022-12-25T01:44:35.859Z,2.83
2022-12-25T01:48:39.349Z,3.13
2022-12-25T01:52:41.538Z,3.08
2022-12-25T01:56:53.984Z,3.35
2022-12-25T02:00:55.793Z,3.03
2022-12-25T02:05:05.543Z,3.65
2022-12-25T02:09:07.411Z,2.97
2022-12-25T02:13:09.415Z,2.90
2022-12-25T02:17:32.940Z,2.73
2022-12-25T02:21:53.010Z,2.75
2022-12-25T02:26:25.093Z,3.17
2022-12-25T02:30:28.407Z,2.97
2022-12-25T02:34:49.154Z,2.95
2022-12-25T02:39:14.823Z,2.72
2022-12-25T02:43:41.598Z,3.13
2022-12-25T02:48:01.805Z,2.72
2022-12-25T02:52:28.559Z,2.88
2022-12-25T02:56:50.304Z,2.40
2022-12-25T03:01:16.954Z,2.83
2022-12-25T03:05:42.219Z,2.35
2022-12-25T03:10:11.528Z,2.47
2022-12-25T03:14:32.080Z,2.72
2022-12-25T03:18:34.244Z,3.15
2022-12-25T03:22:55.412Z,2.10
2022-12-25T03:26:57.494Z,2.38
2022-12-25T03:31:27.021Z,1.93
2022-12-25T03:35:46.420Z,1.90
2022-12-25T03:40:21.337Z,2.95
2022-12-25T03:45:04.986Z,2.30
2022-12-25T03:49:40.225Z,1.90
2022-12-25T03:54:06.722Z,2.20
2022-12-25T03:58:37.749Z,1.80
2022-12-25T04:02:57.990Z,1.77
2022-12-25T04:07:18.578Z,2.47
2022-12-25T04:11:38.869Z,2.33
2022-12-25T04:15:59.104Z,2.00
2022-12-25T04:20:19.295Z,1.77
2022-12-25T04:24:39.270Z,1.67
2022-12-25T04:28:59.607Z,1.23
2022-12-25T04:33:20.770Z,1.02
2022-12-25T04:37:23.185Z,2.00
2022-12-25T04:41:24.742Z,1.13
2022-12-25T04:45:26.418Z,1.30
2022-12-25T04:49:28.124Z,1.25
2022-12-25T04:53:29.683Z,1.50
2022-12-25T04:57:31.501Z,0.88
2022-12-25T05:01:33.188Z,1.73
2022-12-25T05:05:34.821Z,1.40
2022-12-25T05:09:36.459Z,1.02
2022-12-25T05:13:38.736Z,1.90
2022-12-25T05:17:40.561Z,1.38
2022-12-25T05:21:42.163Z,1.30
2022-12-25T05:25:43.715Z,2.33
2022-12-25T05:29:45.384Z,1.35
2022-12-25T05:33:51.372Z,1.15
2022-12-25T05:37:53.037Z,1.17
2022-12-25T05:41:54.737Z,1.30
2022-12-25T05:45:56.406Z,0.90
2022-12-25T05:49:58.129Z,1.30
2022-12-25T05:53:59.782Z,1.45
2022-12-25T05:58:01.399Z,1.23
2022-12-25T06:02:03.173Z,1.13
2022-12-25T06:06:05.081Z,1.10
2022-12-25T06:10:07.398Z,1.40
2022-12-25T06:14:12.706Z,1.23
2022-12-25T06:18:14.252Z,1.10
2022-12-25T06:22:15.926Z,0.98
2022-12-25T06:26:19.593Z,1.00
2022-12-25T06:30:21.278Z,1.05
2022-12-25T06:34:23.439Z,1.00
2022-12-25T06:38:25.024Z,0.90
2022-12-25T06:42:26.616Z,1.48
2022-12-25T06:46:30.081Z,1.05
2022-12-25T06:50:31.678Z,1.30
2022-12-25T06:54:33.253Z,1.30
2022-12-25T06:58:34.835Z,1.48
2022-12-25T07:02:38.620Z,1.00
2022-12-25T07:06:40.332Z,1.20
2022-12-25T07:10:41.859Z,1.25
2022-12-25T07:14:44.990Z,1.50
2022-12-25T07:18:46.593Z,1.00
2022-12-25T07:22:48.198Z,1.10
2022-12-25T07:26:51.423Z,1.27
2022-12-25T07:30:53.680Z,1.15
2022-12-25T07:34:55.249Z,1.00
2022-12-25T07:38:57.309Z,1.13
2022-12-25T07:42:58.858Z,1.50
2022-12-25T07:47:00.416Z,1.33
2022-12-25T07:51:05.846Z,1.13
2022-12-25T07:55:07.696Z,1.48
2022-12-25T07:59:09.302Z,1.50
2022-12-25T08:03:50.561Z,1.30
2022-12-25T08:07:57.622Z,4.45
2022-12-25T08:11:59.662Z,2.90
2022-12-25T08:16:03.606Z,2.08
2022-12-25T08:20:06.008Z,4.35
2022-12-25T08:24:08.090Z,12.30
2022-12-25T08:28:09.677Z,14.37
2022-12-25T08:32:12.856Z,5.90
2022-12-25T08:36:14.577Z,6.68
2022-12-25T08:40:16.296Z,3.22
2022-12-25T08:44:17.925Z,2.38
2022-12-25T08:48:19.495Z,3.22
2022-12-25T08:52:21.375Z,2.22
2022-12-25T08:56:23.006Z,2.70
2022-12-25T09:00:24.542Z,2.00
2022-12-25T09:04:27.206Z,2.75
2022-12-25T09:08:28.896Z,2.50
2022-12-25T09:12:30.442Z,3.05
2022-12-25T09:16:32.998Z,3.67
2022-12-25T09:20:34.782Z,3.45
2022-12-25T09:24:36.405Z,2.55
2022-12-25T09:28:38.002Z,2.72
2022-12-25T09:32:40.401Z,3.00
2022-12-25T09:36:42.147Z,3.45
2022-12-25T09:40:43.721Z,2.97
2022-12-25T09:44:54.256Z,4.28
2022-12-25T09:49:06.186Z,3.55
2022-12-25T09:53:12.885Z,3.33
2022-12-25T09:57:15.278Z,3.47
2022-12-25T10:01:41.374Z,3.30
2022-12-25T10:06:18.023Z,4.40
2022-12-25T10:10:41.140Z,3.88
2022-12-25T10:19:27.490Z,2.58
2022-12-25T10:23:49.283Z,2.30
2022-12-25T10:27:54.669Z,2.85
2022-12-25T10:31:56.796Z,2.72
2022-12-25T10:35:58.495Z,2.73
2022-12-25T10:40:00.163Z,2.70
2022-12-25T10:44:16.142Z,2.72
2022-12-25T10:48:24.952Z,3.03
2022-12-25T10:52:28.826Z,2.80
2022-12-25T10:56:30.751Z,2.85
2022-12-25T11:00:33.296Z,4.17
2022-12-25T11:04:37.469Z,3.33
2022-12-25T11:08:39.262Z,3.67
2022-12-25T11:12:44.777Z,2.30
2022-12-25T11:16:46.829Z,2.85
2022-12-25T11:20:53.314Z,2.73
2022-12-25T11:24:55.379Z,3.15
2022-12-25T11:28:57.949Z,4.10
2022-12-25T11:33:06.760Z,3.65
2022-12-25T11:37:17.865Z,3.72
2022-12-25T11:41:23.456Z,4.18
2022-12-25T11:45:33.277Z,4.07
2022-12-25T11:49:49.478Z,4.22
2022-12-25T11:53:54.903Z,3.70
2022-12-25T11:58:01.541Z,5.10
2022-12-25T12:02:25.155Z,4.35
2022-12-25T12:06:51.073Z,3.85
2022-12-25T12:11:19.466Z,4.88
2022-12-25T12:15:41.336Z,4.07
2022-12-25T12:19:43.187Z,3.70
2022-12-25T12:24:10.763Z,3.97
2022-12-25T12:28:24.342Z,3.17
2022-12-25T12:32:32.096Z,3.65
2022-12-25T12:36:36.766Z,3.58
2022-12-25T12:40:44.221Z,3.58
2022-12-25T12:44:46.531Z,4.18
2022-12-25T12:48:50.427Z,3.92
2022-12-25T12:52:52.212Z,3.75
2022-12-25T12:57:21.791Z,3.30
2022-12-25T13:01:26.617Z,3.40
2022-12-25T13:05:39.300Z,3.35
2022-12-25T13:10:08.556Z,3.90
2022-12-25T13:14:20.208Z,3.58
2022-12-25T13:18:22.022Z,3.97
2022-12-25T13:22:32.776Z,4.03
2022-12-25T13:26:35.055Z,3.40
2022-12-25T13:30:36.831Z,3.15
2022-12-25T13:34:43.242Z,2.95
2022-12-25T13:38:46.833Z,3.00
2022-12-25T13:43:29.843Z,2.58
2022-12-25T13:47:37.129Z,2.67
2022-12-25T13:51:38.866Z,2.53
2022-12-25T13:55:44.058Z,2.75
2022-12-25T14:00:04.457Z,3.13
2022-12-25T14:04:14.195Z,2.22
2022-12-25T14:08:22.052Z,2.97
2022-12-25T14:12:24.659Z,2.60
2022-12-25T14:16:27.220Z,1.98
2022-12-25T14:20:33.819Z,2.50
2022-12-25T14:24:35.424Z,2.30
2022-12-25T14:28:37.793Z,1.83
2022-12-25T14:32:44.651Z,2.33
2022-12-25T14:36:47.013Z,2.58
2022-12-25T14:40:58.761Z,2.78
2022-12-25T14:45:19.186Z,3.03
2022-12-25T14:49:24.748Z,3.47
2022-12-25T14:53:35.568Z,2.53
2022-12-25T14:57:40.583Z,2.20
2022-12-25T15:01:42.971Z,2.47
2022-12-25T15:05:44.765Z,2.17
2022-12-25T15:09:46.435Z,2.15
2022-12-25T15:13:48.010Z,1.55
2022-12-25T15:17:50.489Z,2.10
2022-12-25T15:21:52.320Z,1.98
2022-12-25T15:25:53.934Z,2.00
2022-12-25T15:30:11.308Z,2.08
2022-12-25T15:34:21.078Z,1.88
2022-12-25T15:38:22.717Z,1.80
2022-12-25T15:42:25.238Z,1.98
2022-12-25T15:46:27.059Z,1.88
2022-12-25T15:50:29.375Z,2.17
2022-12-25T15:54:32.126Z,2.33
2022-12-25T15:58:33.683Z,1.90
2022-12-25T16:02:35.363Z,2.00
2022-12-25T16:06:37.463Z,2.05
2022-12-25T16:10:40.483Z,2.80
2022-12-25T16:14:42.720Z,2.55
2022-12-25T16:18:47.670Z,2.50
2022-12-25T16:22:49.647Z,2.22
2022-12-25T16:26:51.184Z,2.58
2022-12-25T16:30:52.814Z,2.17
2022-12-25T16:34:54.392Z,2.30
2022-12-25T16:38:56.764Z,2.08
2022-12-25T16:42:58.467Z,2.28
2022-12-25T16:47:00.197Z,2.50
2022-12-25T16:51:08.272Z,2.22
2022-12-25T16:55:10.208Z,2.83
2022-12-25T16:59:11.923Z,2.67
2022-12-25T17:03:13.731Z,2.63
2022-12-25T17:07:17.269Z,2.40
2022-12-25T17:11:23.625Z,2.55
2022-12-25T17:15:25.193Z,2.70
2022-12-25T17:19:26.780Z,2.53
2022-12-25T17:23:28.432Z,3.28
2022-12-25T17:27:30.017Z,3.03
2022-12-25T17:31:31.903Z,3.33
2022-12-25T17:35:36.388Z,3.13
2022-12-25T17:39:38.649Z,2.85
2022-12-25T17:43:42.191Z,3.50
2022-12-25T17:47:43.761Z,3.65
2022-12-25T17:51:46.355Z,3.30
2022-12-25T17:55:48.026Z,3.08
2022-12-25T17:59:49.596Z,3.50
2022-12-25T18:03:52.283Z,3.30
2022-12-25T18:07:53.981Z,3.20
2022-12-25T18:11:55.880Z,3.90
2022-12-25T18:15:57.508Z,3.03
2022-12-25T18:19:59.249Z,3.40
2022-12-25T18:24:03.859Z,3.38
2022-12-25T18:28:05.399Z,3.22
2022-12-25T18:32:07.568Z,3.60
2022-12-25T18:36:11.853Z,5.00
2022-12-25T18:40:14.019Z,3.65
2022-12-25T18:44:15.729Z,4.30
2022-12-25T18:48:17.339Z,3.22
2022-12-25T18:52:48.080Z,3.80
2022-12-25T18:56:40.681Z,3.58
2022-12-25T19:00:42.304Z,3.97
2022-12-25T19:04:46.568Z,4.35
2022-12-25T19:08:48.724Z,4.35
2022-12-25T19:12:50.327Z,4.67
2022-12-25T19:16:52.877Z,5.05
2022-12-25T19:20:54.458Z,4.45
2022-12-25T19:24:56.029Z,4.65
2022-12-25T19:28:57.600Z,4.90
2022-12-25T19:32:59.248Z,4.75
2022-12-25T19:37:00.793Z,5.38
2022-12-25T19:41:11.473Z,5.93
2022-12-25T19:45:13.012Z,5.40
2022-12-25T19:49:14.826Z,5.20
2022-12-25T19:53:17.609Z,5.20
2022-12-25T20:01:22.645Z,5.28
2022-12-25T20:05:24.242Z,5.30
2022-12-25T20:09:25.844Z,4.78
2022-12-25T20:13:27.488Z,4.55
2022-12-25T20:17:29.061Z,6.07
2022-12-25T20:21:30.839Z,4.97
2022-12-25T20:25:32.571Z,5.47
2022-12-25T20:29:34.109Z,6.82
2022-12-25T20:33:36.453Z,4.13
2022-12-25T20:37:38.109Z,4.00
2022-12-25T20:41:40.703Z,4.63
2022-12-25T20:45:42.528Z,4.45
2022-12-25T20:49:44.180Z,4.43
2022-12-25T20:53:46.206Z,4.38
2022-12-25T20:57:47.759Z,4.67
2022-12-25T21:01:49.586Z,3.95
2022-12-25T21:05:53.238Z,4.50
2022-12-25T21:09:54.832Z,4.10
2022-12-25T21:13:57.048Z,3.95
2022-12-25T21:17:58.687Z,4.15
2022-12-25T21:22:00.316Z,3.78
2022-12-25T21:26:13.572Z,4.13
2022-12-25T21:30:16.112Z,3.53
2022-12-25T21:34:18.343Z,4.38
2022-12-25T21:38:20.720Z,3.42
2022-12-25T21:42:22.424Z,3.30
2022-12-25T21:46:24.771Z,3.47
2022-12-25T21:50:45.355Z,3.70
2022-12-25T21:54:47.004Z,3.55
2022-12-25T21:58:48.748Z,4.20
2022-12-25T22:02:50.557Z,3.55
2022-12-25T22:07:20.395Z,3.43
2022-12-25T22:11:41.358Z,3.55
2022-12-25T22:16:01.423Z,3.42
2022-12-25T22:20:04.444Z,3.17
2022-12-25T22:24:08.206Z,3.83
2022-12-25T22:28:09.748Z,3.35
2022-12-25T22:32:13.261Z,3.30
2022-12-25T22:36:14.923Z,3.33
2022-12-25T22:40:18.977Z,2.97
2022-12-25T22:44:20.567Z,2.80
2022-12-25T22:48:22.095Z,3.10
2022-12-25T22:52:24.850Z,3.28
2022-12-25T22:56:26.367Z,3.23
2022-12-25T23:00:28.403Z,3.27
2022-12-25T23:04:30.146Z,3.30
2022-12-25T23:08:31.705Z,2.85
2022-12-25T23:12:51.896Z,3.30
2022-12-25T23:16:53.544Z,3.40
2022-12-25T23:21:18.979Z,3.65
2022-12-25T23:25:39.401Z,2.97
2022-12-25T23:29:41.267Z,2.85
2022-12-25T23:33:42.828Z,2.72
2022-12-25T23:37:45.117Z,3.10
2022-12-25T23:41:46.715Z,2.85
2022-12-25T23:45:48.324Z,3.00
2022-12-25T23:49:49.869Z,2.70
2022-12-25T23:53:51.692Z,2.35
2022-12-25T23:57:53.362Z,3.40
